Time;durP1;ratioP1;P1;durP2;ratioP2;P2;SDS_P1;SDS_P2;PMS_P1;PMS_P2;Temp;Humidity;BMP_temperature;BMP_pressure;BME280_temperature;BME280_humidity;BME280_pressure;Samples;Min_cycle;Max_cycle;Signal;HPM_P1;HPM_P2
2022/08/14 00:02:27;;;;;;;;;32.25;29.75;;;;;26.11;58.94;98861.06;5085072;28;8908;-80
2022/08/14 00:05:00;;;;;;;;;27.50;27.25;;;;;25.77;59.91;98846.69;5092018;28;8861;-80
2022/08/14 00:07:28;;;;;;;;;34.25;31.00;;;;;25.25;60.62;98852.19;5075573;28;8854;-80
2022/08/14 00:09:58;;;;;;;;;31.00;28.80;;;;;25.28;60.88;98852.00;5075553;28;8866;-81
2022/08/14 00:12:50;;;;;;;;;28.00;28.00;;;;;24.57;62.73;98860.59;5075525;28;8974;-82
2022/08/14 00:15:28;;;;;;;;;30.75;29.75;;;;;24.15;64.44;98854.56;5057805;28;8854;-80
2022/08/14 00:18:13;;;;;;;;;29.00;27.00;;;;;23.92;65.65;98849.81;5086763;28;8864;-79
2022/08/14 00:21:03;;;;;;;;;29.50;27.25;;;;;23.62;66.73;98836.69;5072461;28;8846;-83
2022/08/14 00:23:39;;;;;;;;;26.20;26.20;;;;;23.06;69.47;98838.53;5075982;28;8823;-80
2022/08/14 00:26:07;;;;;;;;;27.50;26.25;;;;;22.84;70.87;98825.72;5071959;28;8889;-83
2022/08/14 00:28:52;;;;;;;;;27.25;25.00;;;;;22.75;71.84;98822.66;5075241;28;8879;-81
2022/08/14 00:31:21;;;;;;;;;30.00;27.50;;;;;22.44;72.91;98814.88;5101338;28;9589;-80
2022/08/14 00:34:09;;;;;;;;;30.75;30.50;;;;;22.50;73.10;98812.72;5103655;28;8839;-82
2022/08/14 00:36:59;;;;;;;;;30.00;29.75;;;;;22.58;72.44;98814.91;5104163;28;8847;-83
2022/08/14 00:39:29;;;;;;;;;27.75;27.00;;;;;22.76;71.85;98813.75;5092443;28;8844;-80
2022/08/14 00:41:58;;;;;;;;;24.00;23.25;;;;;22.91;71.32;98811.94;5091646;28;8844;-80
2022/08/14 00:44:29;;;;;;;;;28.50;27.75;;;;;22.83;71.38;98805.38;5093279;28;8862;-81
2022/08/14 00:47:02;;;;;;;;;25.25;24.75;;;;;23.05;70.57;98811.09;5092052;28;9059;-80
2022/08/14 00:49:31;;;;;;;;;27.00;25.25;;;;;23.26;69.59;98806.19;5091603;28;8839;-79
2022/08/14 00:52:07;;;;;;;;;27.75;27.75;;;;;23.51;68.41;98817.91;5086836;28;8916;-79
2022/08/14 00:54:37;;;;;;;;;33.25;30.75;;;;;23.53;67.66;98808.00;5087064;28;8987;-79
2022/08/14 00:57:08;;;;;;;;;31.50;29.50;;;;;23.00;69.70;98802.50;5086316;28;8866;-80
2022/08/14 00:59:38;;;;;;;;;30.60;28.20;;;;;23.05;68.96;98805.78;5069239;28;10070;-83
2022/08/14 01:02:08;;;;;;;;;26.00;24.25;;;;;23.03;68.96;98799.69;5086587;28;9029;-80
2022/08/14 01:04:39;;;;;;;;;31.75;27.25;;;;;22.64;70.67;98800.38;5069891;28;8838;-80
2022/08/14 01:07:24;;;;;;;;;27.75;26.00;;;;;22.47;72.00;98796.09;5040834;28;8850;-79
2022/08/14 01:09:57;;;;;;;;;30.25;28.75;;;;;22.48;72.22;98790.69;5078012;28;8842;-78
2022/08/14 01:12:28;;;;;;;;;31.75;30.75;;;;;22.59;71.90;98787.38;5055864;28;8850;-79
2022/08/14 01:14:59;;;;;;;;;30.25;29.00;;;;;22.66;71.42;98780.72;5075693;28;8923;-78
2022/08/14 01:23:11;;;;;;;;;33.25;31.25;;;;;23.09;69.03;98785.16;5074177;28;8866;-80
2022/08/14 01:25:47;;;;;;;;;35.00;32.75;;;;;22.90;70.58;98782.78;5070619;28;8838;-79
2022/08/14 01:28:15;;;;;;;;;32.00;29.00;;;;;23.29;69.04;98786.50;5069258;28;8846;-81
2022/08/14 01:31:07;;;;;;;;;32.50;31.25;;;;;23.41;67.73;98790.19;5052029;28;8850;-79
2022/08/14 01:33:39;;;;;;;;;29.25;28.25;;;;;23.62;67.49;98788.75;5070705;28;8862;-80
2022/08/14 01:36:35;;;;;;;;;30.75;30.50;;;;;23.90;66.53;98787.81;5070579;28;8850;-78
2022/08/14 01:39:09;;;;;;;;;35.75;31.50;;;;;23.99;66.00;98788.13;5067581;28;8862;-79
2022/08/14 01:41:42;;;;;;;;;35.50;30.50;;;;;24.26;65.21;98788.06;5068456;28;8839;-78
2022/08/14 01:44:14;;;;;;;;;36.50;33.25;;;;;24.53;64.24;98787.97;5069525;28;9518;-79
2022/08/14 01:47:11;;;;;;;;;31.00;28.50;;;;;24.78;63.96;98789.75;5071272;28;8854;-78
2022/08/14 01:49:50;;;;;;;;;32.75;30.75;;;;;24.59;64.15;98792.00;5070892;28;8862;-80
2022/08/14 01:52:35;;;;;;;;;30.50;29.25;;;;;24.89;63.65;98792.50;5035130;28;8842;-79
2022/08/14 01:55:28;;;;;;;;;33.00;31.00;;;;;24.81;63.62;98786.88;5071245;28;8866;-79
2022/08/14 01:57:58;;;;;;;;;33.25;31.50;;;;;25.09;63.00;98791.06;5070391;28;8866;-80
2022/08/14 02:00:49;;;;;;;;;34.75;32.25;;;;;25.28;62.35;98782.59;5103373;28;8862;-78
2022/08/14 02:03:17;;;;;;;;;35.25;31.75;;;;;25.07;62.40;98786.81;5070924;28;8850;-79
2022/08/14 02:05:49;;;;;;;;;31.25;30.00;;;;;25.17;62.17;98777.16;5070732;28;8862;-79
2022/08/14 02:08:18;;;;;;;;;30.25;29.75;;;;;25.15;62.00;98778.25;5080072;28;8888;-79
2022/08/14 02:11:21;;;;;;;;;36.50;30.00;;;;;25.07;61.69;98776.16;5089964;28;8872;-80
2022/08/14 02:13:55;;;;;;;;;34.75;31.25;;;;;25.03;61.97;98780.84;5088267;28;8832;-79
2022/08/14 02:16:28;;;;;;;;;28.50;27.75;;;;;25.18;62.37;98773.53;5089512;28;8832;-79
2022/08/14 02:18:59;;;;;;;;;32.75;30.25;;;;;25.14;61.74;98779.19;5088842;28;8847;-81
2022/08/14 02:21:31;;;;;;;;;34.00;32.00;;;;;25.36;61.38;98774.03;5088970;28;9009;-79
2022/08/14 02:24:12;;;;;;;;;34.25;32.00;;;;;25.41;60.97;98781.72;5074909;28;8861;-78
2022/08/14 02:27:03;;;;;;;;;29.75;29.50;;;;;25.57;60.97;98779.56;5069081;28;8834;-79
2022/08/14 02:29:54;;;;;;;;;33.50;31.25;;;;;25.41;60.46;98779.88;5067177;28;8850;-78
2022/08/14 02:32:30;;;;;;;;;37.75;32.00;;;;;25.18;61.03;98778.00;5068484;28;8874;-80
2022/08/14 02:35:12;;;;;;;;;30.25;29.50;;;;;25.34;61.01;98773.28;5066846;28;9627;-80
2022/08/14 02:37:41;;;;;;;;;31.75;29.25;;;;;25.37;61.36;98775.75;5068544;28;8963;-79
2022/08/14 02:40:17;;;;;;;;;35.50;32.50;;;;;25.31;60.89;98773.50;5040562;28;8838;-80
2022/08/14 02:42:47;;;;;;;;;32.50;30.25;;;;;25.59;61.24;98776.78;5046096;28;8870;-81
2022/08/14 02:45:27;;;;;;;;;35.50;32.00;;;;;25.68;60.81;98774.28;5045906;28;8906;-79
2022/08/14 02:48:02;;;;;;;;;34.25;32.50;;;;;25.74;60.44;98777.47;5045814;28;8865;-80
2022/08/14 02:50:30;;;;;;;;;34.50;32.25;;;;;25.81;60.00;98778.72;5029104;28;8873;-79
2022/08/14 02:53:01;;;;;;;;;33.75;31.75;;;;;25.52;60.31;98783.56;5045607;28;8954;-79
2022/08/14 02:55:31;;;;;;;;;38.50;34.75;;;;;25.33;60.86;98784.06;5028814;28;8865;-80
2022/08/14 02:58:04;;;;;;;;;34.00;31.50;;;;;25.37;60.75;98786.41;4980307;28;8858;-79
2022/08/14 03:00:34;;;;;;;;;40.25;32.75;;;;;25.17;61.22;98787.84;4980028;28;8834;-79
2022/08/14 03:03:08;;;;;;;;;35.00;32.50;;;;;24.93;61.82;98786.94;5032820;28;8834;-80
2022/08/14 03:05:38;;;;;;;;;33.50;31.25;;;;;25.26;61.32;98791.69;5014451;28;8862;-79
2022/08/14 03:08:12;;;;;;;;;33.75;31.75;;;;;25.44;61.38;98790.34;5045677;28;8838;-80
2022/08/14 03:10:44;;;;;;;;;32.75;29.75;;;;;25.49;60.84;98790.84;5045705;28;8975;-79
2022/08/14 03:13:19;;;;;;;;;32.25;31.25;;;;;25.51;60.57;98790.72;5044976;28;8853;-80
2022/08/14 03:15:52;;;;;;;;;31.75;30.00;;;;;25.54;60.29;98795.84;5045059;28;9604;-80
2022/08/14 03:18:25;;;;;;;;;34.00;30.25;;;;;25.17;60.01;98784.31;5074622;28;8875;-82
2022/08/14 03:21:02;;;;;;;;;33.00;31.75;;;;;25.13;60.76;98788.19;5088545;28;8852;-79
2022/08/14 03:23:33;;;;;;;;;33.75;32.00;;;;;24.94;60.72;98788.66;5088026;28;8852;-79
2022/08/14 03:26:07;;;;;;;;;30.00;28.25;;;;;24.99;60.89;98794.50;5072498;28;8871;-81
2022/08/14 03:28:49;;;;;;;;;33.75;32.00;;;;;25.25;61.14;98788.16;5084682;28;8838;-79
2022/08/14 03:31:22;;;;;;;;;36.50;33.00;;;;;25.25;60.46;98790.81;5067432;28;9007;-79
2022/08/14 03:33:55;;;;;;;;;33.25;31.75;;;;;25.08;60.79;98791.16;5068137;28;8846;-79
2022/08/14 03:36:31;;;;;;;;;70.33;58.33;;;;;25.23;60.51;98784.75;5067978;28;8842;-80
2022/08/14 03:39:20;;;;;;;;;61.00;48.00;;;;;25.36;60.37;98782.03;5068084;28;9468;-78
2022/08/14 03:41:54;;;;;;;;;40.75;35.00;;;;;25.49;60.05;98785.50;5068556;28;9612;-78
2022/08/14 03:44:28;;;;;;;;;31.00;30.50;;;;;25.15;59.92;98778.25;5068462;28;8865;-79
2022/08/14 03:47:18;;;;;;;;;30.25;29.25;;;;;24.80;61.21;98778.97;5070104;28;8854;-79
2022/08/14 03:49:47;;;;;;;;;34.00;32.00;;;;;24.99;60.96;98775.81;5070987;28;8987;-79
2022/08/14 03:52:18;;;;;;;;;36.75;33.50;;;;;24.72;61.74;98763.53;5053123;28;8854;-79
2022/08/14 03:55:10;;;;;;;;;35.00;32.00;;;;;24.70;61.41;98771.63;5072828;28;9734;-79
2022/08/14 03:57:39;;;;;;;;;38.25;34.25;;;;;24.78;61.52;98768.41;5072337;28;8893;-78
2022/08/14 04:00:12;;;;;;;;;35.00;32.25;;;;;24.69;61.79;98767.28;5072382;28;8842;-78
2022/08/14 04:03:03;;;;;;;;;32.50;31.25;;;;;24.82;61.27;98771.72;5072460;28;8846;-79
2022/08/14 04:05:37;;;;;;;;;34.25;30.75;;;;;24.88;61.54;98766.81;5073288;28;8862;-78
2022/08/14 04:08:17;;;;;;;;;38.75;34.50;;;;;24.89;61.03;98771.16;5074267;28;8900;-80
2022/08/14 04:11:01;;;;;;;;;38.00;31.75;;;;;24.97;60.85;98759.97;5086758;28;8850;-79
2022/08/14 04:13:38;;;;;;;;;37.00;34.25;;;;;24.88;60.95;98756.13;5103870;28;8831;-80
2022/08/14 04:16:14;;;;;;;;;37.00;34.00;;;;;25.11;61.02;98750.94;5069864;28;8838;-79
2022/08/14 04:18:45;;;;;;;;;50.25;43.25;;;;;24.99;60.95;98754.47;5071234;28;8957;-79
2022/08/14 04:21:16;;;;;;;;;35.75;32.00;;;;;24.39;62.64;98756.09;5089504;28;8921;-79
2022/08/14 04:23:46;;;;;;;;;34.50;32.25;;;;;24.74;61.88;98750.94;5090333;28;8986;-82
2022/08/14 04:26:27;;;;;;;;;38.25;33.25;;;;;24.85;61.97;98761.69;5090548;28;8840;-79
2022/08/14 04:29:11;;;;;;;;;37.75;33.50;;;;;25.12;61.16;98759.78;5089168;28;8848;-79
2022/08/14 04:31:46;;;;;;;;;34.00;32.00;;;;;25.21;60.69;98754.63;5090882;28;8852;-80
2022/08/14 04:34:38;;;;;;;;;34.00;31.00;;;;;25.03;61.15;98756.84;5072929;28;8983;-78
2022/08/14 04:45:39;;;;;;;;;33.25;32.25;;;;;25.02;60.69;98746.28;5069724;28;8865;-79
2022/08/14 04:48:11;;;;;;;;;36.75;32.75;;;;;24.78;60.99;98752.41;5070965;28;8847;-80
2022/08/14 04:50:42;;;;;;;;;36.00;33.00;;;;;24.73;61.27;98751.91;5073218;28;8988;-78
2022/08/14 04:53:15;;;;;;;;;37.50;33.25;;;;;24.89;60.52;98744.47;5074438;28;8858;-78
2022/08/14 04:55:48;;;;;;;;;32.75;31.50;;;;;25.04;60.55;98753.19;5098012;28;8855;-79
2022/08/14 04:58:21;;;;;;;;;33.50;30.50;;;;;24.98;60.32;98750.97;5107177;28;8978;-79
2022/08/14 05:01:02;;;;;;;;;35.00;29.75;;;;;24.80;61.52;98755.84;5107968;28;8875;-78
2022/08/14 05:03:34;;;;;;;;;31.50;30.00;;;;;24.98;60.73;98750.13;5098527;28;8875;-80
2022/08/14 05:06:06;;;;;;;;;47.75;40.25;;;;;24.49;62.34;98752.66;5076595;28;8972;-78
2022/08/14 05:08:55;;;;;;;;;33.75;31.25;;;;;24.69;62.11;98745.09;5068840;28;9074;-79
2022/08/14 05:11:32;;;;;;;;;34.75;32.75;;;;;24.36;63.01;98748.28;5068469;28;8913;-80
2022/08/14 05:14:04;;;;;;;;;28.50;28.25;;;;;24.66;61.96;98742.63;5070089;28;8850;-80
2022/08/14 05:16:52;;;;;;;;;32.25;31.25;;;;;24.32;63.15;98745.00;5069933;28;10025;-80
2022/08/14 05:19:26;;;;;;;;;41.00;34.25;;;;;24.87;62.43;98743.75;5069110;28;8846;-78
2022/08/14 05:21:58;;;;;;;;;34.00;30.50;;;;;24.86;61.52;98738.53;5069469;28;8992;-80
2022/08/14 05:24:48;;;;;;;;;34.50;32.00;;;;;24.77;62.24;98749.88;5070385;28;8856;-81
2022/08/14 05:27:20;;;;;;;;;34.00;30.00;;;;;24.96;61.37;98738.72;5069954;28;8865;-79
2022/08/14 05:29:54;;;;;;;;;78.50;69.50;;;;;24.54;62.58;98739.03;5074297;28;8918;-79
2022/08/14 05:32:25;;;;;;;;;37.00;32.25;;;;;24.89;61.69;98744.47;5071606;28;9416;-80
2022/08/14 05:34:59;;;;;;;;;36.00;32.25;;;;;24.64;61.81;98755.22;5068468;28;8850;-80
2022/08/14 05:37:29;;;;;;;;;32.75;30.50;;;;;24.11;64.04;98763.31;5072122;28;8885;-80
2022/08/14 05:40:00;;;;;;;;;34.75;32.25;;;;;23.79;65.09;98768.19;5074013;28;8872;-80
2022/08/14 05:42:30;;;;;;;;;31.50;30.50;;;;;23.91;64.92;98768.22;5073996;28;8838;-79
2022/08/14 05:45:04;;;;;;;;;38.50;33.75;;;;;23.87;65.15;98768.50;5072823;28;8876;-79
2022/08/14 05:47:40;;;;;;;;;37.75;32.00;;;;;23.48;66.59;98771.06;5072855;28;8920;-80
2022/08/14 05:50:14;;;;;;;;;35.50;32.25;;;;;23.41;65.77;98769.75;5071052;28;8943;-82
2022/08/14 05:52:49;;;;;;;;;34.25;32.75;;;;;22.86;68.98;98768.84;5089924;28;8859;-80
2022/08/14 05:55:19;;;;;;;;;34.25;31.50;;;;;23.25;67.60;98769.03;5106908;28;8867;-79
2022/08/14 05:57:53;;;;;;;;;37.00;33.00;;;;;23.32;66.91;98773.00;5093617;28;8879;-80
2022/08/14 06:00:28;;;;;;;;;38.25;34.00;;;;;23.12;68.03;98771.66;5090783;28;8843;-79
2022/08/14 06:03:05;;;;;;;;;37.25;32.50;;;;;22.98;68.27;98768.03;5031393;28;8953;-79
2022/08/14 06:05:39;;;;;;;;;34.00;32.67;;;;;22.74;70.19;98773.13;5032469;28;8911;-80
2022/08/14 06:08:16;;;;;;;;;39.75;34.50;;;;;22.91;69.22;98771.19;5049390;28;8951;-81
2022/08/14 06:11:07;;;;;;;;;26.50;26.50;;;;;22.98;68.69;98768.03;5049092;28;8923;-80
2022/08/14 06:13:37;;;;;;;;;39.00;35.00;;;;;22.72;70.13;98769.72;4998487;28;8858;-82
2022/08/14 06:16:16;;;;;;;;;39.00;34.00;;;;;22.64;70.80;98769.31;5030417;28;8851;-81
2022/08/14 06:18:47;;;;;;;;;40.50;33.75;;;;;23.09;69.23;98750.59;5047824;28;9068;-78
2022/08/14 06:21:23;;;;;;;;;40.50;34.75;;;;;23.34;67.61;98750.66;5047148;28;9697;-80
2022/08/14 06:23:53;;;;;;;;;39.75;34.50;;;;;23.62;66.44;98764.81;5026954;28;8833;-79
2022/08/14 06:26:22;;;;;;;;;38.25;34.00;;;;;23.75;66.04;98764.84;4995012;28;8841;-82
2022/08/14 06:28:58;;;;;;;;;68.00;56.00;;;;;23.81;65.50;98771.59;5027226;28;8848;-84
2022/08/14 06:31:27;;;;;;;;;38.00;33.50;;;;;23.66;66.32;98768.13;5027135;28;8950;-82
2022/08/14 06:33:56;;;;;;;;;34.25;31.00;;;;;23.28;67.71;98771.50;5034289;28;8931;-82
2022/08/14 06:36:46;;;;;;;;;34.25;30.75;;;;;23.68;66.32;98768.88;5044881;28;8874;-80
2022/08/14 06:39:14;;;;;;;;;35.75;32.25;;;;;24.11;64.67;98774.81;5043795;28;8852;-80
2022/08/14 06:41:44;;;;;;;;;42.00;35.50;;;;;23.65;66.10;98782.41;5027050;28;8852;-80
2022/08/14 06:44:29;;;;;;;;;39.00;35.00;;;;;23.99;64.51;98780.13;5026623;28;8882;-81
2022/08/14 06:47:03;;;;;;;;;37.50;33.75;;;;;23.35;67.17;98784.31;5026678;28;8852;-82
2022/08/14 06:49:33;;;;;;;;;43.00;36.50;;;;;23.58;67.06;98783.75;5027032;28;9010;-80
2022/08/14 06:52:13;;;;;;;;;34.50;32.00;;;;;23.63;67.05;98776.31;5034044;28;8856;-83
2022/08/14 06:54:44;;;;;;;;;36.00;32.50;;;;;24.16;64.78;98784.31;5049809;28;9599;-81
2022/08/14 06:57:12;;;;;;;;;30.75;30.25;;;;;24.40;63.26;98787.09;5068032;28;8866;-82
2022/08/14 06:59:41;;;;;;;;;30.00;28.25;;;;;24.13;63.18;98799.53;5068254;28;8954;-80
2022/08/14 07:07:52;;;;;;;;;31.50;30.25;;;;;25.34;60.49;98807.13;5040828;28;8843;-80
2022/08/14 07:10:21;;;;;;;;;29.75;27.75;;;;;25.58;60.10;98801.81;5066961;28;8839;-82
2022/08/14 07:12:53;;;;;;;;;27.75;27.50;;;;;25.68;58.57;98797.47;5068644;28;8984;-83
2022/08/14 07:15:32;;;;;;;;;30.00;29.20;;;;;25.61;58.85;98799.72;5067182;28;8862;-79
2022/08/14 07:18:08;;;;;;;;;35.00;32.75;;;;;25.67;59.16;98791.28;5068297;28;8854;-81
2022/08/14 07:20:37;;;;;;;;;34.25;31.75;;;;;25.49;59.22;98790.00;5068725;28;8854;-80
2022/08/14 07:23:09;;;;;;;;;31.75;30.00;;;;;25.61;59.08;98794.41;5069012;28;8944;-82
2022/08/14 07:25:48;;;;;;;;;34.50;31.25;;;;;25.74;59.27;98785.47;5051530;28;8842;-81
2022/08/14 07:28:22;;;;;;;;;36.25;32.00;;;;;25.20;59.73;98787.63;5071681;28;8878;-80
2022/08/14 07:30:55;;;;;;;;;34.00;32.00;;;;;24.73;61.45;98791.06;5071323;28;8880;-81
2022/08/14 07:33:24;;;;;;;;;32.40;30.20;;;;;25.07;60.41;98790.31;5078134;28;8878;-82
2022/08/14 07:36:00;;;;;;;;;35.25;32.50;;;;;25.37;59.74;98788.22;5074173;28;8892;-83
2022/08/14 07:38:32;;;;;;;;;32.75;31.25;;;;;25.59;59.25;98796.34;5074369;28;9613;-81
2022/08/14 07:41:07;;;;;;;;;31.00;30.00;;;;;25.78;57.88;98792.28;5108473;28;9608;-82
2022/08/14 07:43:43;;;;;;;;;30.25;28.25;;;;;25.82;57.58;98796.44;5075606;28;8858;-83
2022/08/14 07:46:24;;;;;;;;;34.75;31.25;;;;;25.86;57.70;98792.56;5074823;28;8846;-82
2022/08/14 07:48:57;;;;;;;;;38.00;34.25;;;;;25.81;58.06;98808.09;5074326;28;8881;-81
2022/08/14 07:51:26;;;;;;;;;30.00;29.25;;;;;26.01;57.97;98802.13;5071408;28;8847;-79
2022/08/14 07:54:06;;;;;;;;;32.25;30.75;;;;;25.70;57.86;98813.38;5072215;28;8986;-81
2022/08/14 07:56:41;;;;;;;;;32.75;30.00;;;;;25.81;57.63;98810.75;5054541;28;8854;-80
2022/08/14 07:59:16;;;;;;;;;29.40;28.80;;;;;25.61;57.87;98810.41;5036609;28;9712;-80
2022/08/14 08:01:47;;;;;;;;;27.00;27.00;;;;;25.81;57.06;98816.09;5071908;28;8876;-80
2022/08/14 08:04:24;;;;;;;;;30.25;29.75;;;;;26.04;56.90;98817.91;5071214;28;8927;-79
2022/08/14 08:06:55;;;;;;;;;33.50;32.00;;;;;26.14;57.08;98826.06;5070598;28;8931;-82
2022/08/14 08:09:29;;;;;;;;;31.00;30.00;;;;;26.37;56.15;98820.78;5070682;28;8989;-81
2022/08/14 08:12:04;;;;;;;;;36.50;32.25;;;;;26.17;56.62;98825.00;5071908;28;9626;-81
2022/08/14 08:14:43;;;;;;;;;32.25;29.50;;;;;26.18;56.36;98819.53;5070680;28;8862;-80
2022/08/14 08:17:30;;;;;;;;;33.25;30.00;;;;;25.99;57.18;98816.56;5072716;28;9004;-81
2022/08/14 08:20:08;;;;;;;;;30.50;29.75;;;;;26.24;56.32;98816.38;5070742;28;8861;-82
2022/08/14 08:22:39;;;;;;;;;31.20;29.60;;;;;26.41;56.78;98804.38;5071081;28;8962;-80
2022/08/14 08:25:12;;;;;;;;;34.50;32.25;;;;;25.81;58.32;98805.41;5071380;28;8900;-81
2022/08/14 08:27:58;;;;;;;;;33.75;30.75;;;;;26.29;57.02;98816.03;5019128;28;8964;-82
2022/08/14 08:30:28;;;;;;;;;30.75;30.00;;;;;26.58;56.15;98813.75;5071250;28;8854;-80
2022/08/14 08:33:00;;;;;;;;;33.50;30.50;;;;;26.53;55.51;98807.06;5069618;28;8865;-81
2022/08/14 08:35:32;;;;;;;;;29.75;29.00;;;;;26.86;55.49;98806.25;5070958;28;8850;-82
2022/08/14 08:38:19;;;;;;;;;30.50;28.50;;;;;26.52;55.56;98808.91;5069389;28;8861;-81
2022/08/14 08:41:10;;;;;;;;;34.00;31.00;;;;;26.48;55.75;98810.09;5070483;28;8838;-82
2022/08/14 08:43:40;;;;;;;;;30.00;29.75;;;;;26.57;55.34;98806.69;5071041;28;8913;-81
2022/08/14 08:46:19;;;;;;;;;30.50;29.25;;;;;26.34;55.16;98808.50;5078163;28;8945;-81
2022/08/14 08:48:55;;;;;;;;;33.25;31.50;;;;;25.86;57.25;98801.44;5111126;28;8978;-83
2022/08/14 08:51:26;;;;;;;;;31.50;30.75;;;;;25.98;57.30;98809.53;5072011;28;8864;-81
2022/08/14 08:54:04;;;;;;;;;30.80;30.20;;;;;26.64;56.24;98802.59;5071333;28;8838;-84
2022/08/14 08:56:39;;;;;;;;;31.00;28.25;;;;;26.39;55.04;98808.13;5071478;28;8851;-82
2022/08/14 08:59:20;;;;;;;;;30.25;28.25;;;;;25.10;59.93;98815.91;5086599;28;8827;-81
2022/08/14 09:01:56;;;;;;;;;31.25;29.00;;;;;25.50;57.90;98807.72;5070282;28;9024;-82
2022/08/14 09:04:27;;;;;;;;;30.50;30.00;;;;;25.41;57.75;98817.25;5071277;28;8865;-86
2022/08/14 09:06:56;;;;;;;;;31.50;30.25;;;;;24.78;59.81;98811.06;5064697;28;8995;-83
2022/08/14 09:09:50;;;;;;;;;33.00;30.25;;;;;25.14;59.52;98808.56;5029605;28;8929;-86
2022/08/14 09:12:28;;;;;;;;;32.25;30.50;;;;;25.41;59.00;98811.06;5092319;28;8863;-82
2022/08/14 09:15:02;;;;;;;;;31.25;30.50;;;;;25.82;57.84;98816.00;5090622;28;8852;-84
2022/08/14 09:17:32;;;;;;;;;32.25;30.00;;;;;26.01;57.59;98812.81;5074251;28;8876;-82
2022/08/14 09:20:01;;;;;;;;;32.25;31.00;;;;;25.83;57.60;98817.69;5091702;28;8840;-84
2022/08/14 09:22:32;;;;;;;;;33.75;31.75;;;;;25.58;58.91;98812.50;5058431;28;8997;-84
2022/08/14 09:25:10;;;;;;;;;36.00;32.00;;;;;25.91;57.37;98814.44;5107989;28;8843;-85
2022/08/14 09:27:43;;;;;;;;;28.00;28.00;;;;;25.81;57.64;98813.44;5054461;28;9069;-82
2022/08/14 09:30:13;;;;;;;;;34.50;31.25;;;;;25.43;57.72;98812.66;5089238;28;8956;-82
2022/08/14 09:33:36;;;;;;;;;36.50;32.00;;;;;24.71;60.43;98817.81;5072972;28;8838;-82
2022/08/14 09:36:59;;;;;;;;;35.50;32.50;;;;;24.43;62.46;98801.06;5020483;28;8870;-85
2022/08/14 09:39:42;;;;;;;;;37.25;32.75;;;;;24.35;63.89;98799.88;4976131;28;9004;-82
2022/08/14 09:42:34;;;;;;;;;31.75;30.25;;;;;24.95;62.26;98780.53;4996861;28;8881;-80
2022/08/14 09:45:14;;;;;;;;;68.50;56.00;;;;;24.58;62.52;98779.66;4989383;28;8956;-82
2022/08/14 09:47:48;;;;;;;;;32.50;29.75;;;;;24.92;61.72;98786.09;4973205;28;8850;-83
2022/08/14 09:50:23;;;;;;;;;35.75;31.50;;;;;24.81;62.05;98778.88;4955069;28;8850;-79
2022/08/14 09:52:57;;;;;;;;;38.75;33.75;;;;;24.95;61.29;98785.03;4968705;28;9610;-81
2022/08/14 09:55:32;;;;;;;;;36.25;32.00;;;;;24.84;61.28;98789.31;4968236;28;8966;-81
2022/08/14 09:58:14;;;;;;;;;34.75;32.00;;;;;24.76;62.32;98782.81;4938002;28;9897;-80
2022/08/14 10:00:53;;;;;;;;;31.75;30.75;;;;;25.57;60.04;98782.25;4988007;28;8989;-79
2022/08/14 10:03:32;;;;;;;;;34.50;32.50;;;;;25.23;60.10;98774.06;4987752;28;8847;-82
2022/08/14 10:06:07;;;;;;;;;33.50;32.00;;;;;26.25;58.36;98772.63;4987403;28;8951;-82
2022/08/14 10:08:45;;;;;;;;;39.25;33.25;;;;;26.38;56.17;98777.88;4988039;28;8963;-81
2022/08/14 10:11:21;;;;;;;;;25.50;24.25;;;;;26.73;56.22;98776.09;5010962;28;9011;-82
2022/08/14 10:13:53;;;;;;;;;28.75;28.75;;;;;27.29;54.23;98769.84;5027925;28;8853;-83
2022/08/14 10:16:28;;;;;;;;;35.00;32.25;;;;;26.88;55.33;98769.53;5064462;28;8833;-84
2022/08/14 10:19:05;;;;;;;;;29.25;29.00;;;;;27.62;52.46;98760.84;5091061;28;8962;-82
2022/08/14 10:21:36;;;;;;;;;34.00;32.25;;;;;26.96;54.03;98764.41;5089063;28;8845;-84
2022/08/14 10:24:26;;;;;;;;;34.00;32.25;;;;;27.31;53.05;98765.22;5088288;28;8833;-83
2022/08/14 10:27:05;;;;;;;;;32.00;31.25;;;;;27.79;51.59;98762.94;5089045;28;8867;-81
2022/08/14 10:29:36;;;;;;;;;30.00;29.00;;;;;27.60;51.81;98760.13;5088256;28;9670;-83
2022/08/14 10:32:09;;;;;;;;;32.00;30.75;;;;;27.67;51.61;98753.25;5087982;28;8860;-81
2022/08/14 10:35:06;;;;;;;;;36.00;33.25;;;;;27.26;52.61;98751.34;5090297;28;8968;-82
2022/08/14 10:37:47;;;;;;;;;30.00;30.00;;;;;26.96;53.92;98752.88;5089240;28;8869;-83
2022/08/14 10:40:26;;;;;;;;;25.25;25.00;;;;;27.02;54.55;98745.16;5102344;28;8857;-83
2022/08/14 10:43:24;;;;;;;;;30.00;28.50;;;;;26.99;54.20;98745.44;5094299;28;8861;-83
2022/08/14 10:46:00;;;;;;;;;34.75;32.50;;;;;26.33;55.35;98747.97;5088383;28;8926;-82
2022/08/14 10:49:01;;;;;;;;;34.75;32.50;;;;;26.76;54.36;98738.41;5075112;28;8862;-82
2022/08/14 10:51:34;;;;;;;;;32.50;30.75;;;;;27.04;53.74;98737.88;5068063;28;8970;-81
2022/08/14 10:54:11;;;;;;;;;29.25;28.00;;;;;27.36;53.63;98739.75;5069436;28;8838;-86
2022/08/14 10:57:15;;;;;;;;;30.67;29.33;;;;;28.33;51.82;98741.44;5068992;28;8858;-81
2022/08/14 10:59:48;;;;;;;;;41.50;36.50;;;;;27.65;52.10;98731.09;5067028;28;8958;-82
2022/08/14 11:02:20;;;;;;;;;37.75;34.50;;;;;27.67;52.75;98741.69;5032723;28;8901;-86
2022/08/14 11:05:13;;;;;;;;;28.00;26.80;;;;;27.16;53.26;98738.69;5036187;28;8838;-83
2022/08/14 11:07:54;;;;;;;;;32.00;31.25;;;;;27.56;53.00;98742.59;5067508;28;8842;-81
2022/08/14 11:10:27;;;;;;;;;30.60;27.40;;;;;28.36;49.79;98738.50;5067055;28;9000;-84
2022/08/14 11:12:57;;;;;;;;;29.40;27.80;;;;;28.68;48.39;98742.91;5083562;28;8857;-83
2022/08/14 11:15:27;;;;;;;;;34.75;31.75;;;;;28.33;49.24;98744.94;5070365;28;8927;-82
2022/08/14 11:17:59;;;;;;;;;33.00;28.75;;;;;28.28;49.67;98743.66;5070052;28;8855;-83
2022/08/14 11:20:31;;;;;;;;;26.20;25.20;;;;;28.08;49.82;98740.88;5067873;28;9051;-82
2022/08/14 11:23:01;;;;;;;;;32.25;30.25;;;;;28.65;49.19;98730.56;5084588;28;8855;-81
2022/08/14 11:25:31;;;;;;;;;23.75;23.75;;;;;28.32;49.06;98739.75;5068170;28;8854;-84
2022/08/14 11:28:13;;;;;;;;;27.75;27.25;;;;;29.19;47.41;98733.84;5069562;28;8851;-84
2022/08/14 11:30:50;;;;;;;;;22.60;22.00;;;;;29.78;46.23;98725.81;5090594;28;8857;-82
2022/08/14 11:33:23;;;;;;;;;26.75;25.00;;;;;29.29;46.58;98734.69;5080307;28;8854;-80
2022/08/14 11:35:53;;;;;;;;;17.40;17.40;;;;;30.02;46.45;98736.97;5074921;28;8854;-82
2022/08/14 11:38:27;;;;;;;;;31.75;30.00;;;;;29.40;46.39;98730.19;5101913;28;8943;-82
2022/08/14 11:40:56;;;;;;;;;63.00;51.50;;;;;30.12;45.61;98745.00;5072209;28;8854;-84
2022/08/14 11:43:27;;;;;;;;;22.60;21.40;;;;;29.15;44.83;98743.19;5069762;28;8862;-81
2022/08/14 11:46:01;;;;;;;;;24.00;23.20;;;;;29.81;44.19;98739.84;5085086;28;8868;-83
2022/08/14 11:48:44;;;;;;;;;24.00;21.75;;;;;30.28;44.21;98736.31;5071938;28;8882;-83
2022/08/14 11:51:35;;;;;;;;;19.40;18.80;;;;;30.09;44.45;98750.66;5070129;28;8942;-86
2022/08/14 11:54:22;;;;;;;;;56.75;46.75;;;;;30.46;43.93;98734.59;5083800;28;8859;-86
2022/08/14 11:57:02;;;;;;;;;22.60;22.40;;;;;30.85;42.45;98731.72;5066653;28;8866;-85
2022/08/14 11:59:32;;;;;;;;;19.00;18.60;;;;;31.23;42.83;98729.78;5067542;28;8886;-82
2022/08/14 12:02:11;;;;;;;;;19.80;19.60;;;;;32.08;41.73;98732.09;5069732;28;8942;-84
2022/08/14 12:05:00;;;;;;;;;20.60;20.60;;;;;31.65;40.38;98731.88;5070516;28;8842;-83
2022/08/14 12:07:33;;;;;;;;;21.60;20.00;;;;;32.01;39.91;98733.69;5084292;28;8884;-83
2022/08/14 12:10:04;;;;;;;;;23.20;20.80;;;;;31.69;39.45;98732.44;5068792;28;8862;-83
2022/08/14 12:12:55;;;;;;;;;28.00;26.00;;;;;31.42;39.67;98736.03;5069111;28;8853;-84
2022/08/14 12:15:32;;;;;;;;;20.20;20.00;;;;;30.90;38.91;98745.59;5073172;28;8835;-82
2022/08/14 12:18:04;;;;;;;;;23.80;23.00;;;;;30.36;40.71;98743.69;5076828;28;8850;-89
2022/08/14 12:20:43;;;;;;;;;21.00;21.00;;;;;31.25;39.46;98735.03;5062834;28;8843;-87
2022/08/14 12:23:24;;;;;;;;;20.60;20.60;;;;;31.63;39.35;98727.66;5060183;28;8880;-90
2022/08/14 12:26:10;;;;;;;;;22.20;21.80;;;;;31.74;37.90;98738.22;5046277;28;9129;-90
2022/08/14 12:29:08;;;;;;;;;19.60;19.60;;;;;31.36;38.27;98740.19;5079286;28;8851;-89